sensor_id;sensor_type;location;lat;lon;timestamp;temperature;humidity
18807;DHT22;9531;52.030;4.380;2022-09-20T00:00:44;12.70;99.90
18807;DHT22;9531;52.030;4.380;2022-09-20T00:03:13;12.70;99.90
18807;DHT22;9531;52.030;4.380;2022-09-20T00:05:43;12.60;99.90
18807;DHT22;9531;52.030;4.380;2022-09-20T00:08:12;12.60;99.90
18807;DHT22;9531;52.030;4.380;2022-09-20T00:10:40;12.60;99.90
18807;DHT22;9531;52.030;4.380;2022-09-20T00:13:11;12.60;99.90
18807;DHT22;9531;52.030;4.380;2022-09-20T00:15:43;12.60;99.90
18807;DHT22;9531;52.030;4.380;2022-09-20T00:18:11;12.60;99.90
18807;DHT22;9531;52.030;4.380;2022-09-20T00:20:44;12.50;99.90
18807;DHT22;9531;52.030;4.380;2022-09-20T00:23:11;12.50;99.90
18807;DHT22;9531;52.030;4.380;2022-09-20T00:25:39;12.50;99.90
18807;DHT22;9531;52.030;4.380;2022-09-20T00:28:06;12.50;99.90
18807;DHT22;9531;52.030;4.380;2022-09-20T00:30:36;12.40;99.90
18807;DHT22;9531;52.030;4.380;2022-09-20T00:33:05;12.50;99.90
18807;DHT22;9531;52.030;4.380;2022-09-20T00:35:32;12.50;99.90
18807;DHT22;9531;52.030;4.380;2022-09-20T00:37:59;12.50;99.90
18807;DHT22;9531;52.030;4.380;2022-09-20T00:40:26;12.50;99.90
18807;DHT22;9531;52.030;4.380;2022-09-20T00:42:53;12.50;99.90
18807;DHT22;9531;52.030;4.380;2022-09-20T00:45:22;12.50;99.90
18807;DHT22;9531;52.030;4.380;2022-09-20T00:47:55;12.50;99.90
18807;DHT22;9531;52.030;4.380;2022-09-20T00:50:30;12.50;99.90
18807;DHT22;9531;52.030;4.380;2022-09-20T00:53:03;12.40;99.90
18807;DHT22;9531;52.030;4.380;2022-09-20T00:55:32;12.40;99.90
18807;DHT22;9531;52.030;4.380;2022-09-20T00:58:03;12.40;99.90
18807;DHT22;9531;52.030;4.380;2022-09-20T01:00:33;12.30;99.90
18807;DHT22;9531;52.030;4.380;2022-09-20T01:03:05;12.30;99.90
18807;DHT22;9531;52.030;4.380;2022-09-20T01:05:33;12.30;99.90
18807;DHT22;9531;52.030;4.380;2022-09-20T01:08:00;12.30;99.90
18807;DHT22;9531;52.030;4.380;2022-09-20T01:10:28;12.20;99.90
18807;DHT22;9531;52.030;4.380;2022-09-20T01:12:55;12.20;99.90
18807;DHT22;9531;52.030;4.380;2022-09-20T01:15:24;12.10;99.90
18807;DHT22;9531;52.030;4.380;2022-09-20T01:17:56;12.10;99.90
18807;DHT22;9531;52.030;4.380;2022-09-20T01:20:27;12.10;99.90
18807;DHT22;9531;52.030;4.380;2022-09-20T01:23:34;12.00;99.90
18807;DHT22;9531;52.030;4.380;2022-09-20T01:26:23;12.00;99.90
18807;DHT22;9531;52.030;4.380;2022-09-20T01:29:00;12.00;99.90
18807;DHT22;9531;52.030;4.380;2022-09-20T01:31:32;12.00;99.90
18807;DHT22;9531;52.030;4.380;2022-09-20T01:34:02;11.90;99.90
18807;DHT22;9531;52.030;4.380;2022-09-20T01:36:33;11.90;99.90
18807;DHT22;9531;52.030;4.380;2022-09-20T01:39:09;11.90;99.90
18807;DHT22;9531;52.030;4.380;2022-09-20T01:41:41;11.80;99.90
18807;DHT22;9531;52.030;4.380;2022-09-20T01:44:16;11.80;99.90
18807;DHT22;9531;52.030;4.380;2022-09-20T01:46:52;11.80;99.90
18807;DHT22;9531;52.030;4.380;2022-09-20T01:49:28;11.80;99.90
18807;DHT22;9531;52.030;4.380;2022-09-20T01:55:16;11.70;99.90
18807;DHT22;9531;52.030;4.380;2022-09-20T01:58:15;11.70;99.90
18807;DHT22;9531;52.030;4.380;2022-09-20T02:04:22;11.50;99.90
18807;DHT22;9531;52.030;4.380;2022-09-20T02:07:12;11.50;99.90
18807;DHT22;9531;52.030;4.380;2022-09-20T02:12:47;11.40;99.90
18807;DHT22;9531;52.030;4.380;2022-09-20T02:15:32;11.40;99.90
18807;DHT22;9531;52.030;4.380;2022-09-20T02:18:17;11.30;99.90
18807;DHT22;9531;52.030;4.380;2022-09-20T02:20:51;11.40;99.90
18807;DHT22;9531;52.030;4.380;2022-09-20T02:23:31;11.30;99.90
18807;DHT22;9531;52.030;4.380;2022-09-20T02:26:23;11.30;99.90
18807;DHT22;9531;52.030;4.380;2022-09-20T02:29:01;11.30;99.90
18807;DHT22;9531;52.030;4.380;2022-09-20T02:31:50;11.40;99.90
18807;DHT22;9531;52.030;4.380;2022-09-20T02:34:43;11.40;99.90
18807;DHT22;9531;52.030;4.380;2022-09-20T02:37:30;11.40;99.90
18807;DHT22;9531;52.030;4.380;2022-09-20T02:40:11;11.40;99.90
18807;DHT22;9531;52.030;4.380;2022-09-20T02:42:48;11.30;99.90
18807;DHT22;9531;52.030;4.380;2022-09-20T02:45:26;11.30;99.90
18807;DHT22;9531;52.030;4.380;2022-09-20T02:48:01;11.30;99.90
18807;DHT22;9531;52.030;4.380;2022-09-20T02:50:45;11.30;99.90
18807;DHT22;9531;52.030;4.380;2022-09-20T02:53:26;11.30;99.90
18807;DHT22;9531;52.030;4.380;2022-09-20T02:56:04;11.30;99.90
18807;DHT22;9531;52.030;4.380;2022-09-20T02:58:43;11.30;99.90
18807;DHT22;9531;52.030;4.380;2022-09-20T03:01:19;11.30;99.90
18807;DHT22;9531;52.030;4.380;2022-09-20T03:03:58;11.20;99.90
18807;DHT22;9531;52.030;4.380;2022-09-20T03:06:40;11.20;99.90
18807;DHT22;9531;52.030;4.380;2022-09-20T03:09:13;11.20;99.90
18807;DHT22;9531;52.030;4.380;2022-09-20T03:11:50;11.10;99.90
18807;DHT22;9531;52.030;4.380;2022-09-20T03:14:23;11.10;99.90
18807;DHT22;9531;52.030;4.380;2022-09-20T03:17:03;11.10;99.90
18807;DHT22;9531;52.030;4.380;2022-09-20T03:22:38;11.10;99.90
18807;DHT22;9531;52.030;4.380;2022-09-20T03:25:25;11.10;99.90
18807;DHT22;9531;52.030;4.380;2022-09-20T03:28:04;11.10;99.90
18807;DHT22;9531;52.030;4.380;2022-09-20T03:30:45;11.10;99.90
18807;DHT22;9531;52.030;4.380;2022-09-20T03:33:22;11.10;99.90
18807;DHT22;9531;52.030;4.380;2022-09-20T03:36:04;11.20;99.90
18807;DHT22;9531;52.030;4.380;2022-09-20T03:41:43;11.20;99.90
18807;DHT22;9531;52.030;4.380;2022-09-20T03:47:27;11.30;99.90
18807;DHT22;9531;52.030;4.380;2022-09-20T03:50:12;11.30;99.90
18807;DHT22;9531;52.030;4.380;2022-09-20T03:53:04;11.30;99.90
18807;DHT22;9531;52.030;4.380;2022-09-20T03:56:04;11.30;99.90
18807;DHT22;9531;52.030;4.380;2022-09-20T03:58:50;11.30;99.90
18807;DHT22;9531;52.030;4.380;2022-09-20T04:01:39;11.40;99.90
18807;DHT22;9531;52.030;4.380;2022-09-20T04:04:12;11.40;99.90
18807;DHT22;9531;52.030;4.380;2022-09-20T04:07:04;11.40;99.90
18807;DHT22;9531;52.030;4.380;2022-09-20T04:12:40;11.50;99.90
18807;DHT22;9531;52.030;4.380;2022-09-20T04:15:21;11.50;99.90
18807;DHT22;9531;52.030;4.380;2022-09-20T04:17:56;11.50;99.90
18807;DHT22;9531;52.030;4.380;2022-09-20T04:20:33;11.50;99.90
18807;DHT22;9531;52.030;4.380;2022-09-20T04:23:11;11.50;99.90
18807;DHT22;9531;52.030;4.380;2022-09-20T04:25:45;11.60;99.90
18807;DHT22;9531;52.030;4.380;2022-09-20T04:28:20;11.60;99.90
18807;DHT22;9531;52.030;4.380;2022-09-20T04:30:52;11.60;99.90
18807;DHT22;9531;52.030;4.380;2022-09-20T04:33:23;11.60;99.90
18807;DHT22;9531;52.030;4.380;2022-09-20T04:36:01;11.60;99.90
18807;DHT22;9531;52.030;4.380;2022-09-20T04:38:52;11.60;99.90
18807;DHT22;9531;52.030;4.380;2022-09-20T04:41:38;11.60;99.90
18807;DHT22;9531;52.030;4.380;2022-09-20T04:47:46;11.70;99.90
18807;DHT22;9531;52.030;4.380;2022-09-20T04:50:40;11.70;99.90
18807;DHT22;9531;52.030;4.380;2022-09-20T04:53:26;11.60;99.90
18807;DHT22;9531;52.030;4.380;2022-09-20T04:55:59;11.60;99.90
18807;DHT22;9531;52.030;4.380;2022-09-20T04:58:48;11.70;99.90
18807;DHT22;9531;52.030;4.380;2022-09-20T05:04:57;11.70;99.90
18807;DHT22;9531;52.030;4.380;2022-09-20T05:14:15;11.70;99.90
18807;DHT22;9531;52.030;4.380;2022-09-20T05:16:59;11.60;99.90
18807;DHT22;9531;52.030;4.380;2022-09-20T05:19:39;11.70;99.90
18807;DHT22;9531;52.030;4.380;2022-09-20T05:22:34;11.70;99.90
18807;DHT22;9531;52.030;4.380;2022-09-20T05:25:28;11.70;99.90
18807;DHT22;9531;52.030;4.380;2022-09-20T05:28:02;9.60;99.90
18807;DHT22;9531;52.030;4.380;2022-09-20T05:30:35;11.70;99.90
18807;DHT22;9531;52.030;4.380;2022-09-20T05:33:14;11.70;99.90
18807;DHT22;9531;52.030;4.380;2022-09-20T05:35:51;11.70;99.90
18807;DHT22;9531;52.030;4.380;2022-09-20T05:38:29;11.70;99.90
18807;DHT22;9531;52.030;4.380;2022-09-20T05:41:07;11.70;99.90
18807;DHT22;9531;52.030;4.380;2022-09-20T05:43:45;11.70;99.90
18807;DHT22;9531;52.030;4.380;2022-09-20T05:46:17;11.70;99.90
18807;DHT22;9531;52.030;4.380;2022-09-20T05:48:56;11.70;99.90
18807;DHT22;9531;52.030;4.380;2022-09-20T05:51:40;11.80;99.90
18807;DHT22;9531;52.030;4.380;2022-09-20T05:54:34;14.00;99.90
18807;DHT22;9531;52.030;4.380;2022-09-20T05:57:14;13.70;99.90
18807;DHT22;9531;52.030;4.380;2022-09-20T05:59:57;10.30;99.90
18807;DHT22;9531;52.030;4.380;2022-09-20T06:02:37;11.70;99.90
18807;DHT22;9531;52.030;4.380;2022-09-20T06:05:11;9.30;99.90
18807;DHT22;9531;52.030;4.380;2022-09-20T06:08:20;8.20;99.90
18807;DHT22;9531;52.030;4.380;2022-09-20T06:11:14;8.80;99.90
18807;DHT22;9531;52.030;4.380;2022-09-20T06:13:59;10.10;99.90
18807;DHT22;9531;52.030;4.380;2022-09-20T06:16:40;11.90;99.90
18807;DHT22;9531;52.030;4.380;2022-09-20T06:19:17;11.90;99.90
18807;DHT22;9531;52.030;4.380;2022-09-20T06:21:49;14.50;99.90
18807;DHT22;9531;52.030;4.380;2022-09-20T06:24:28;10.30;99.90
18807;DHT22;9531;52.030;4.380;2022-09-20T06:27:00;11.90;99.90
18807;DHT22;9531;52.030;4.380;2022-09-20T06:29:31;12.00;99.90
18807;DHT22;9531;52.030;4.380;2022-09-20T06:32:00;12.00;99.90
18807;DHT22;9531;52.030;4.380;2022-09-20T06:34:27;10.50;99.90
18807;DHT22;9531;52.030;4.380;2022-09-20T06:36:59;14.20;99.90
18807;DHT22;9531;52.030;4.380;2022-09-20T06:39:52;14.10;99.90
18807;DHT22;9531;52.030;4.380;2022-09-20T06:42:39;10.00;99.90
18807;DHT22;9531;52.030;4.380;2022-09-20T06:45:10;13.80;99.90
18807;DHT22;9531;52.030;4.380;2022-09-20T06:47:38;15.10;1.00
18807;DHT22;9531;52.030;4.380;2022-09-20T06:50:06;15.70;1.00
18807;DHT22;9531;52.030;4.380;2022-09-20T06:52:33;15.90;1.00
18807;DHT22;9531;52.030;4.380;2022-09-20T06:57:33;18.60;1.00
18807;DHT22;9531;52.030;4.380;2022-09-20T07:00:05;15.70;99.90
18807;DHT22;9531;52.030;4.380;2022-09-20T07:02:35;14.40;99.90
18807;DHT22;9531;52.030;4.380;2022-09-20T07:05:02;16.10;99.90
18807;DHT22;9531;52.030;4.380;2022-09-20T07:07:32;14.80;99.90
18807;DHT22;9531;52.030;4.380;2022-09-20T07:09:58;15.10;99.90
18807;DHT22;9531;52.030;4.380;2022-09-20T07:12:28;17.50;99.90
18807;DHT22;9531;52.030;4.380;2022-09-20T07:17:26;16.30;99.90
18807;DHT22;9531;52.030;4.380;2022-09-20T07:19:53;17.30;99.90
18807;DHT22;9531;52.030;4.380;2022-09-20T07:22:22;19.40;99.90
18807;DHT22;9531;52.030;4.380;2022-09-20T07:27:16;16.40;99.90
18807;DHT22;9531;52.030;4.380;2022-09-20T07:29:43;20.50;99.90
18807;DHT22;9531;52.030;4.380;2022-09-20T07:34:40;20.00;99.90
18807;DHT22;9531;52.030;4.380;2022-09-20T07:37:07;17.80;99.90
18807;DHT22;9531;52.030;4.380;2022-09-20T07:39:34;24.30;99.90
18807;DHT22;9531;52.030;4.380;2022-09-20T07:42:01;21.10;99.90
18807;DHT22;9531;52.030;4.380;2022-09-20T07:44:31;26.40;99.90
18807;DHT22;9531;52.030;4.380;2022-09-20T07:46:59;22.40;99.90
18807;DHT22;9531;52.030;4.380;2022-09-20T07:49:27;22.60;99.90
18807;DHT22;9531;52.030;4.380;2022-09-20T07:51:57;23.10;99.90
18807;DHT22;9531;52.030;4.380;2022-09-20T08:04:14;24.40;99.90
18807;DHT22;9531;52.030;4.380;2022-09-20T08:06:43;24.60;99.90
18807;DHT22;9531;52.030;4.380;2022-09-20T08:09:12;25.80;99.90
18807;DHT22;9531;52.030;4.380;2022-09-20T08:11:40;28.20;99.90
18807;DHT22;9531;52.030;4.380;2022-09-20T08:14:12;21.80;99.90
18807;DHT22;9531;52.030;4.380;2022-09-20T08:16:41;26.10;99.90
18807;DHT22;9531;52.030;4.380;2022-09-20T08:19:14;26.30;99.90
18807;DHT22;9531;52.030;4.380;2022-09-20T08:24:10;25.90;99.90
18807;DHT22;9531;52.030;4.380;2022-09-20T08:29:05;28.40;99.90
18807;DHT22;9531;52.030;4.380;2022-09-20T08:31:33;30.70;99.90
18807;DHT22;9531;52.030;4.380;2022-09-20T08:36:31;30.20;99.90
18807;DHT22;9531;52.030;4.380;2022-09-20T08:38:58;28.70;99.90
18807;DHT22;9531;52.030;4.380;2022-09-20T08:41:29;32.90;99.90
18807;DHT22;9531;52.030;4.380;2022-09-20T08:44:01;24.10;99.90
18807;DHT22;9531;52.030;4.380;2022-09-20T08:46:32;28.30;99.90
18807;DHT22;9531;52.030;4.380;2022-09-20T08:49:02;24.70;99.90
18807;DHT22;9531;52.030;4.380;2022-09-20T08:51:33;28.40;99.90
18807;DHT22;9531;52.030;4.380;2022-09-20T08:54:00;30.10;99.90
18807;DHT22;9531;52.030;4.380;2022-09-20T08:56:31;29.80;99.90
18807;DHT22;9531;52.030;4.380;2022-09-20T08:59:00;34.80;99.90
18807;DHT22;9531;52.030;4.380;2022-09-20T09:01:28;34.20;99.90
18807;DHT22;9531;52.030;4.380;2022-09-20T09:04:01;34.20;99.90
18807;DHT22;9531;52.030;4.380;2022-09-20T09:06:30;29.70;99.90
18807;DHT22;9531;52.030;4.380;2022-09-20T09:08:58;29.70;99.90
18807;DHT22;9531;52.030;4.380;2022-09-20T09:13:57;28.90;99.90
18807;DHT22;9531;52.030;4.380;2022-09-20T09:16:27;30.40;99.90
18807;DHT22;9531;52.030;4.380;2022-09-20T09:18:55;27.70;99.90
18807;DHT22;9531;52.030;4.380;2022-09-20T09:21:24;27.20;99.90
18807;DHT22;9531;52.030;4.380;2022-09-20T09:23:56;27.70;99.90
18807;DHT22;9531;52.030;4.380;2022-09-20T09:26:34;27.20;99.90
18807;DHT22;9531;52.030;4.380;2022-09-20T09:29:18;31.30;99.90
18807;DHT22;9531;52.030;4.380;2022-09-20T09:31:46;29.20;99.90
18807;DHT22;9531;52.030;4.380;2022-09-20T09:34:25;26.10;99.90
18807;DHT22;9531;52.030;4.380;2022-09-20T09:36:54;30.70;99.90
18807;DHT22;9531;52.030;4.380;2022-09-20T09:39:23;28.90;99.90
18807;DHT22;9531;52.030;4.380;2022-09-20T09:41:51;31.30;99.90
18807;DHT22;9531;52.030;4.380;2022-09-20T09:44:22;32.20;99.90
18807;DHT22;9531;52.030;4.380;2022-09-20T09:46:50;29.20;99.90
18807;DHT22;9531;52.030;4.380;2022-09-20T09:49:19;28.80;99.90
18807;DHT22;9531;52.030;4.380;2022-09-20T09:52:05;29.20;99.90
18807;DHT22;9531;52.030;4.380;2022-09-20T09:54:34;34.60;99.90
18807;DHT22;9531;52.030;4.380;2022-09-20T09:57:12;29.10;99.90
18807;DHT22;9531;52.030;4.380;2022-09-20T10:00:00;29.50;99.90
18807;DHT22;9531;52.030;4.380;2022-09-20T10:02:53;29.70;99.90
18807;DHT22;9531;52.030;4.380;2022-09-20T10:05:29;27.80;99.90
18807;DHT22;9531;52.030;4.380;2022-09-20T10:08:09;32.10;99.90
18807;DHT22;9531;52.030;4.380;2022-09-20T10:11:05;31.50;99.90
18807;DHT22;9531;52.030;4.380;2022-09-20T10:13:39;28.20;99.90
18807;DHT22;9531;52.030;4.380;2022-09-20T10:16:20;29.50;99.90
18807;DHT22;9531;52.030;4.380;2022-09-20T10:19:00;29.00;99.90
18807;DHT22;9531;52.030;4.380;2022-09-20T10:21:41;32.00;99.90
18807;DHT22;9531;52.030;4.380;2022-09-20T10:24:23;31.80;99.90
18807;DHT22;9531;52.030;4.380;2022-09-20T10:27:21;28.50;99.90
18807;DHT22;9531;52.030;4.380;2022-09-20T10:30:01;34.50;99.90
18807;DHT22;9531;52.030;4.380;2022-09-20T10:32:42;33.50;99.90
18807;DHT22;9531;52.030;4.380;2022-09-20T10:35:23;29.10;99.90
18807;DHT22;9531;52.030;4.380;2022-09-20T10:38:10;29.30;99.90
18807;DHT22;9531;52.030;4.380;2022-09-20T10:40:51;32.90;99.90
18807;DHT22;9531;52.030;4.380;2022-09-20T10:43:46;33.60;99.90
18807;DHT22;9531;52.030;4.380;2022-09-20T10:46:20;32.40;99.90
18807;DHT22;9531;52.030;4.380;2022-09-20T10:49:02;28.10;99.90
18807;DHT22;9531;52.030;4.380;2022-09-20T10:51:38;27.90;99.90
18807;DHT22;9531;52.030;4.380;2022-09-20T10:54:12;28.40;99.90
18807;DHT22;9531;52.030;4.380;2022-09-20T10:56:43;30.10;99.90
18807;DHT22;9531;52.030;4.380;2022-09-20T10:59:38;33.80;99.90
18807;DHT22;9531;52.030;4.380;2022-09-20T11:02:24;33.90;99.90
18807;DHT22;9531;52.030;4.380;2022-09-20T11:05:19;32.60;99.90
18807;DHT22;9531;52.030;4.380;2022-09-20T11:07:58;23.00;99.90
18807;DHT22;9531;52.030;4.380;2022-09-20T11:10:30;30.40;99.90
18807;DHT22;9531;52.030;4.380;2022-09-20T11:13:14;30.50;99.90
18807;DHT22;9531;52.030;4.380;2022-09-20T11:15:48;27.40;99.90
18807;DHT22;9531;52.030;4.380;2022-09-20T11:18:22;33.10;99.90
18807;DHT22;9531;52.030;4.380;2022-09-20T11:20:58;26.70;99.90
18807;DHT22;9531;52.030;4.380;2022-09-20T11:23:32;22.20;99.90
18807;DHT22;9531;52.030;4.380;2022-09-20T11:26:08;22.70;99.90
18807;DHT22;9531;52.030;4.380;2022-09-20T11:28:40;32.20;99.90
18807;DHT22;9531;52.030;4.380;2022-09-20T11:31:13;26.10;99.90
18807;DHT22;9531;52.030;4.380;2022-09-20T11:33:47;25.10;99.90
18807;DHT22;9531;52.030;4.380;2022-09-20T11:36:23;27.80;99.90
18807;DHT22;9531;52.030;4.380;2022-09-20T11:38:56;22.40;99.90
18807;DHT22;9531;52.030;4.380;2022-09-20T11:41:27;27.60;99.90
18807;DHT22;9531;52.030;4.380;2022-09-20T11:43:57;32.00;99.90
18807;DHT22;9531;52.030;4.380;2022-09-20T11:46:26;28.70;99.90
18807;DHT22;9531;52.030;4.380;2022-09-20T11:49:00;29.10;99.90
18807;DHT22;9531;52.030;4.380;2022-09-20T11:51:41;25.10;99.90
18807;DHT22;9531;52.030;4.380;2022-09-20T11:54:42;24.80;99.90
18807;DHT22;9531;52.030;4.380;2022-09-20T11:59:51;32.50;99.90
18807;DHT22;9531;52.030;4.380;2022-09-20T12:02:22;31.90;99.90
18807;DHT22;9531;52.030;4.380;2022-09-20T12:04:50;30.80;99.90
18807;DHT22;9531;52.030;4.380;2022-09-20T12:07:23;29.90;99.90
18807;DHT22;9531;52.030;4.380;2022-09-20T12:09:54;29.80;99.90
18807;DHT22;9531;52.030;4.380;2022-09-20T12:12:42;30.40;99.90
18807;DHT22;9531;52.030;4.380;2022-09-20T12:15:24;25.50;99.90
18807;DHT22;9531;52.030;4.380;2022-09-20T12:18:26;30.80;99.90
18807;DHT22;9531;52.030;4.380;2022-09-20T12:21:05;29.10;99.90
18807;DHT22;9531;52.030;4.380;2022-09-20T12:26:38;29.80;99.90
18807;DHT22;9531;52.030;4.380;2022-09-20T12:32:42;31.30;99.90
18807;DHT22;9531;52.030;4.380;2022-09-20T12:38:55;30.30;99.90
18807;DHT22;9531;52.030;4.380;2022-09-20T12:41:23;30.80;99.90
18807;DHT22;9531;52.030;4.380;2022-09-20T12:43:59;33.70;99.90
18807;DHT22;9531;52.030;4.380;2022-09-20T12:46:37;31.20;99.90
18807;DHT22;9531;52.030;4.380;2022-09-20T12:49:30;29.70;99.90
18807;DHT22;9531;52.030;4.380;2022-09-20T12:52:47;29.20;99.90
18807;DHT22;9531;52.030;4.380;2022-09-20T12:55:33;28.60;99.90
18807;DHT22;9531;52.030;4.380;2022-09-20T12:58:05;32.80;99.90
18807;DHT22;9531;52.030;4.380;2022-09-20T13:00:38;30.50;99.90
18807;DHT22;9531;52.030;4.380;2022-09-20T13:03:20;28.00;99.90
18807;DHT22;9531;52.030;4.380;2022-09-20T13:05:49;28.20;99.90
18807;DHT22;9531;52.030;4.380;2022-09-20T13:08:19;27.90;99.90
18807;DHT22;9531;52.030;4.380;2022-09-20T13:10:56;28.30;99.90
18807;DHT22;9531;52.030;4.380;2022-09-20T13:13:30;30.80;99.90
18807;DHT22;9531;52.030;4.380;2022-09-20T13:15:58;28.90;99.90
18807;DHT22;9531;52.030;4.380;2022-09-20T13:18:30;29.10;99.90
18807;DHT22;9531;52.030;4.380;2022-09-20T13:20:58;35.30;99.90
18807;DHT22;9531;52.030;4.380;2022-09-20T13:23:38;34.40;99.90
18807;DHT22;9531;52.030;4.380;2022-09-20T13:26:11;29.50;99.90
18807;DHT22;9531;52.030;4.380;2022-09-20T13:28:46;31.00;99.90
18807;DHT22;9531;52.030;4.380;2022-09-20T13:31:29;33.30;99.90
18807;DHT22;9531;52.030;4.380;2022-09-20T13:34:18;29.50;99.90
18807;DHT22;9531;52.030;4.380;2022-09-20T13:36:46;30.60;99.90
18807;DHT22;9531;52.030;4.380;2022-09-20T13:39:24;30.70;99.90
18807;DHT22;9531;52.030;4.380;2022-09-20T13:41:58;25.10;99.90
18807;DHT22;9531;52.030;4.380;2022-09-20T13:44:28;29.40;99.90
18807;DHT22;9531;52.030;4.380;2022-09-20T13:46:55;31.10;99.90
18807;DHT22;9531;52.030;4.380;2022-09-20T13:51:50;34.10;99.90
18807;DHT22;9531;52.030;4.380;2022-09-20T13:54:20;31.30;99.90
18807;DHT22;9531;52.030;4.380;2022-09-20T13:56:50;29.20;99.90
18807;DHT22;9531;52.030;4.380;2022-09-20T13:59:19;29.10;99.90
18807;DHT22;9531;52.030;4.380;2022-09-20T14:01:51;28.80;99.90
18807;DHT22;9531;52.030;4.380;2022-09-20T14:04:20;28.60;99.90
18807;DHT22;9531;52.030;4.380;2022-09-20T14:06:49;23.50;99.90
18807;DHT22;9531;52.030;4.380;2022-09-20T14:09:20;28.00;99.90
18807;DHT22;9531;52.030;4.380;2022-09-20T14:14:19;27.40;99.90
18807;DHT22;9531;52.030;4.380;2022-09-20T14:16:46;27.20;99.90
18807;DHT22;9531;52.030;4.380;2022-09-20T14:19:16;22.20;99.90
18807;DHT22;9531;52.030;4.380;2022-09-20T14:21:46;26.90;99.90
18807;DHT22;9531;52.030;4.380;2022-09-20T14:24:26;27.50;99.90
18807;DHT22;9531;52.030;4.380;2022-09-20T14:27:15;30.40;99.90
18807;DHT22;9531;52.030;4.380;2022-09-20T14:29:45;26.60;99.90
18807;DHT22;9531;52.030;4.380;2022-09-20T14:32:26;26.60;99.90
18807;DHT22;9531;52.030;4.380;2022-09-20T14:35:00;26.60;99.90
18807;DHT22;9531;52.030;4.380;2022-09-20T14:37:29;26.60;99.90
18807;DHT22;9531;52.030;4.380;2022-09-20T14:39:59;26.70;99.90
18807;DHT22;9531;52.030;4.380;2022-09-20T14:42:30;26.60;99.90
18807;DHT22;9531;52.030;4.380;2022-09-20T14:45:02;26.60;99.90
18807;DHT22;9531;52.030;4.380;2022-09-20T14:47:36;26.50;99.90
18807;DHT22;9531;52.030;4.380;2022-09-20T14:50:17;28.00;99.90
18807;DHT22;9531;52.030;4.380;2022-09-20T14:53:02;26.40;99.90
18807;DHT22;9531;52.030;4.380;2022-09-20T14:55:30;26.40;99.90
18807;DHT22;9531;52.030;4.380;2022-09-20T14:58:01;29.80;99.90
18807;DHT22;9531;52.030;4.380;2022-09-20T15:00:44;26.40;99.90
18807;DHT22;9531;52.030;4.380;2022-09-20T15:03:13;26.40;99.90
18807;DHT22;9531;52.030;4.380;2022-09-20T15:05:42;26.30;99.90
18807;DHT22;9531;52.030;4.380;2022-09-20T15:08:12;26.40;99.90
18807;DHT22;9531;52.030;4.380;2022-09-20T15:10:40;25.40;99.90
18807;DHT22;9531;52.030;4.380;2022-09-20T15:13:08;26.30;99.90
18807;DHT22;9531;52.030;4.380;2022-09-20T15:15:36;26.30;99.90
18807;DHT22;9531;52.030;4.380;2022-09-20T15:18:04;26.20;99.90
18807;DHT22;9531;52.030;4.380;2022-09-20T15:32:57;25.50;99.90
18807;DHT22;9531;52.030;4.380;2022-09-20T15:42:45;29.30;99.90
18807;DHT22;9531;52.030;4.380;2022-09-20T15:47:40;24.20;99.90
18807;DHT22;9531;52.030;4.380;2022-09-20T15:50:09;24.10;99.90
18807;DHT22;9531;52.030;4.380;2022-09-20T15:52:37;23.90;99.90
18807;DHT22;9531;52.030;4.380;2022-09-20T15:55:06;19.70;99.90
18807;DHT22;9531;52.030;4.380;2022-09-20T16:02:29;23.00;99.90
18807;DHT22;9531;52.030;4.380;2022-09-20T16:07:25;22.50;99.90
18807;DHT22;9531;52.030;4.380;2022-09-20T16:09:53;22.50;99.90
18807;DHT22;9531;52.030;4.380;2022-09-20T16:12:25;22.30;99.90
18807;DHT22;9531;52.030;4.380;2022-09-20T16:20:08;21.60;99.90
18807;DHT22;9531;52.030;4.380;2022-09-20T16:22:35;21.70;99.90
18807;DHT22;9531;52.030;4.380;2022-09-20T16:25:03;21.50;99.90
18807;DHT22;9531;52.030;4.380;2022-09-20T16:30:00;17.60;99.90
18807;DHT22;9531;52.030;4.380;2022-09-20T16:39:53;20.70;99.90
18807;DHT22;9531;52.030;4.380;2022-09-20T16:47:15;20.10;99.90
18807;DHT22;9531;52.030;4.380;2022-09-20T16:52:15;20.10;99.90
18807;DHT22;9531;52.030;4.380;2022-09-20T16:57:10;19.80;99.90
18807;DHT22;9531;52.030;4.380;2022-09-20T16:59:42;19.70;99.90
18807;DHT22;9531;52.030;4.380;2022-09-20T17:02:11;19.60;99.90
18807;DHT22;9531;52.030;4.380;2022-09-20T17:14:32;19.00;99.90
18807;DHT22;9531;52.030;4.380;2022-09-20T17:17:00;18.90;99.90
18807;DHT22;9531;52.030;4.380;2022-09-20T17:24:22;18.50;99.90
18807;DHT22;9531;52.030;4.380;2022-09-20T17:26:50;18.40;99.90
18807;DHT22;9531;52.030;4.380;2022-09-20T17:29:20;18.30;99.90
18807;DHT22;9531;52.030;4.380;2022-09-20T17:31:49;18.20;99.90
18807;DHT22;9531;52.030;4.380;2022-09-20T17:34:17;18.10;99.90
18807;DHT22;9531;52.030;4.380;2022-09-20T17:39:14;17.90;99.90
18807;DHT22;9531;52.030;4.380;2022-09-20T17:41:45;22.20;99.90
18807;DHT22;9531;52.030;4.380;2022-09-20T17:44:12;17.60;99.90
18807;DHT22;9531;52.030;4.380;2022-09-20T17:46:41;17.50;99.90
18807;DHT22;9531;52.030;4.380;2022-09-20T17:49:11;17.40;99.90
18807;DHT22;9531;52.030;4.380;2022-09-20T17:51:40;17.30;99.90
18807;DHT22;9531;52.030;4.380;2022-09-20T17:54:09;17.20;99.90
18807;DHT22;9531;52.030;4.380;2022-09-20T18:01:34;16.90;99.90
18807;DHT22;9531;52.030;4.380;2022-09-20T18:04:03;12.20;99.90
18807;DHT22;9531;52.030;4.380;2022-09-20T18:06:34;13.50;99.90
18807;DHT22;9531;52.030;4.380;2022-09-20T18:09:04;22.70;99.90
18807;DHT22;9531;52.030;4.380;2022-09-20T18:11:34;13.20;99.90
18807;DHT22;9531;52.030;4.380;2022-09-20T18:14:02;16.10;99.90
18807;DHT22;9531;52.030;4.380;2022-09-20T18:16:31;16.20;99.90
18807;DHT22;9531;52.030;4.380;2022-09-20T18:19:00;16.10;99.90
18807;DHT22;9531;52.030;4.380;2022-09-20T18:21:29;16.10;99.90
18807;DHT22;9531;52.030;4.380;2022-09-20T18:23:58;16.00;99.90
18807;DHT22;9531;52.030;4.380;2022-09-20T18:26:28;15.90;99.90
18807;DHT22;9531;52.030;4.380;2022-09-20T18:28:58;15.80;99.90
18807;DHT22;9531;52.030;4.380;2022-09-20T18:31:28;15.70;99.90
18807;DHT22;9531;52.030;4.380;2022-09-20T18:33:57;15.60;99.90
18807;DHT22;9531;52.030;4.380;2022-09-20T18:36:26;20.20;99.90
18807;DHT22;9531;52.030;4.380;2022-09-20T18:38:53;15.50;99.90
18807;DHT22;9531;52.030;4.380;2022-09-20T18:41:24;18.10;99.90
18807;DHT22;9531;52.030;4.380;2022-09-20T18:43:53;15.40;99.90
18807;DHT22;9531;52.030;4.380;2022-09-20T18:46:20;15.30;99.90
18807;DHT22;9531;52.030;4.380;2022-09-20T18:48:53;15.40;99.90
18807;DHT22;9531;52.030;4.380;2022-09-20T18:51:22;15.30;99.90
18807;DHT22;9531;52.030;4.380;2022-09-20T18:53:50;11.40;99.90
18807;DHT22;9531;52.030;4.380;2022-09-20T18:56:21;15.20;99.90
18807;DHT22;9531;52.030;4.380;2022-09-20T18:58:50;15.20;99.90
18807;DHT22;9531;52.030;4.380;2022-09-20T19:08:03;15.00;99.90
18807;DHT22;9531;52.030;4.380;2022-09-20T19:10:40;14.90;99.90
18807;DHT22;9531;52.030;4.380;2022-09-20T19:13:24;14.80;99.90
18807;DHT22;9531;52.030;4.380;2022-09-20T19:16:23;14.70;99.90
18807;DHT22;9531;52.030;4.380;2022-09-20T19:19:23;14.60;99.90
18807;DHT22;9531;52.030;4.380;2022-09-20T19:21:57;14.50;99.90